Station: Macquarie Island  

  Atmospheric Gas Attenuation - ITU Rec 676-11   ----------------- dB/100km -----------------
Date Time Temp RH % AH g/m3 Dew Point Wind Direction Speed kph Gust kph Barometer mB Rainfall Since 9am 24GHz 47GHz 76GHz 122GHz 134GHz 241GHz
11/05 08:30 5.3 67 4.65 -0.3 70 80 1005.1 2 11.5 21.6 27.6 71.8 55.2 186.0
11/05 08:20 5.3 67 4.65 -0.3 65 74 1005 2 11.5 21.6 27.6 71.8 55.2 186.0
11/05 08:10 5.3 64 4.44 -0.9 59 69 1005.1 2 11.0 21.3 26.8 69.7 52.6 176.8
11/05 08:00 5.2 66 4.55 -0.6 65 85 1005.1 2 11.2 21.5 27.2 70.9 54.0 181.9
11/05 07:50 5 70 4.76 0 70 82 1005 2 11.7 21.8 28.1 73.2 56.8 191.6
11/05 07:40 5.1 65 4.45 -0.9 72 91 1004.7 2 11.0 21.3 26.9 70.0 52.8 177.6
11/05 07:30 5 68 4.62 -0.4 65 82 1004.9 2 11.4 21.6 27.6 71.8 55.0 185.4
11/05 07:20 4.9 70 4.73 -0.1 67 72 1004.6 2 11.6 21.8 28.0 73.0 56.5 190.4
11/05 07:10 4.7 71 4.73 -0.1 65 78 1004.7 2 11.7 21.9 28.1 73.2 56.6 190.9
11/05 07:00 4.6 76 5.03 0.7 67 83 1004.6 2 12.3 22.3 29.3 76.4 60.5 204.6
11/05 06:50 4.2 82 5.29 1.4 61 76 1004.6 2 12.9 22.9 30.4 79.5 64.2 217.6
11/05 06:40 5 79 5.37 1.7 67 74 1004.3 2 13.0 22.8 30.4 79.5 64.6 219.0
11/05 06:30 4.8 77 5.17 1.1 69 87 1004.1 2 12.6 22.5 29.7 77.6 62.2 210.4
11/05 06:20 4.8 78 5.23 1.3 76 89 1004 2 12.7 22.6 29.9 78.2 62.9 213.1
11/05 06:10 5.2 77 5.31 1.5 56 72 1003.9 2 12.9 22.6 30.1 78.6 63.6 215.6
11/05 06:00 5.1 76 5.2 1.2 67 91 1003.9 2 12.6 22.5 29.7 77.6 62.3 210.9
11/05 05:50 5.2 74 5.1 1 80 89 1003.5 2 12.4 22.3 29.3 76.4 60.9 206.0
11/05 05:40 5.4 73 5.1 1 59 70 1003.4 2 12.4 22.2 29.2 76.2 60.7 205.5
11/05 05:30 5.2 76 5.24 1.3 59 82 1003.7 2 12.7 22.5 29.8 77.9 62.7 212.4
11/05 05:20 5.5 72 5.06 0.9 57 69 1003.5 2 12.3 22.1 29.0 75.7 60.2 203.5
11/05 05:10 5.4 70 4.89 0.4 69 91 1003.4 2 12.0 21.9 28.4 74.0 58.1 196.1
11/05 05:00 5.5 71 4.99 0.7 70 85 1003.2 2 12.2 22.0 28.7 75.0 59.3 200.3
11/05 04:50 5.5 72 5.06 0.9 65 76 1003 2 12.3 22.1 29.0 75.7 60.1 203.4
11/05 04:40 5.7 69 4.91 0.5 67 74 1003 2 12.0 21.8 28.3 73.9 58.1 196.2
11/05 04:30 5.7 73 5.2 1.2 67 87 1002.8 2 12.6 22.3 29.5 76.9 61.8 209.1
11/05 04:20 5.7 71 5.06 0.9 59 80 1002.8 2 12.3 22.1 28.9 75.5 60.0 202.8
11/05 04:10 5.8 70 5.02 0.8 65 76 1003 2 12.2 22.0 28.7 75.0 59.4 200.8
11/05 04:00 5.4 72 5.03 0.8 65 95 1003 2 12.3 22.1 28.9 75.4 59.8 202.3
11/05 03:50 5.6 78 5.52 2.1 63 80 1002.8 2 13.3 22.8 30.7 80.3 66.0 223.8
11/05 03:40 5.9 71 5.12 1.1 54 63 1002.6 2 12.4 22.1 29.1 75.9 60.6 205.0
11/05 03:30 5.8 72 5.16 1.2 67 87 1002.6 2 12.5 22.2 29.3 76.4 61.2 207.0
11/05 03:20 6 76 5.52 2.1 67 80 1002.3 2 13.3 22.7 30.6 79.9 65.6 222.6
11/05 03:10 5.9 74 5.34 1.6 65 80 1002.3 2 12.9 22.4 29.9 78.1 63.4 214.8
11/05 03:00 5.9 75 5.41 1.8 67 82 1002.4 2 13.1 22.5 30.2 78.8 64.3 217.9
11/05 02:50 6 76 5.52 2.1 67 76 1002.1 2 13.3 22.7 30.6 79.9 65.6 222.6
11/05 02:40 6.1 73 5.34 1.6 74 87 1002 2 12.9 22.4 29.8 77.9 63.2 214.2
11/05 02:30 6 74 5.37 1.7 69 89 1002.1 2 13.0 22.4 30.0 78.3 63.6 215.8
11/05 02:20 5.9 78 5.63 2.4 65 82 1002 2 13.5 22.9 31.0 81.1 67.1 227.8
11/05 02:10 6.1 81 5.92 3.1 65 80 1002 2 14.2 23.3 32.1 84.0 70.7 240.5
11/05 02:00 6.1 82 5.99 3.3 72 89 1001.8 2 14.3 23.4 32.4 84.7 71.6 243.7
11/05 01:50 6.1 86 6.29 3.9 67 80 1001.6 2 15.0 23.9 33.5 87.9 75.5 257.5
11/05 01:40 6.2 88 6.48 4.4 61 69 1001.5 2 15.4 24.1 34.3 89.8 78.0 266.1
11/05 01:30 6.2 89 6.55 4.5 65 80 1001.3 2 15.5 24.2 34.5 90.5 78.9 269.3
11/05 01:20 6.2 90 6.62 4.7 65 78 1001.1 2 15.7 24.4 34.8 91.3 79.8 272.6
11/05 01:10 6.3 90 6.67 4.8 61 72 1001.2 2 15.8 24.4 35.0 91.7 80.4 274.6
11/05 01:00 6.4 90 6.71 4.9 65 85 1001 2 15.9 24.4 35.1 92.0 80.8 276.1
11/05 00:50 6.4 90 6.71 4.9 70 78 1000.9 2 15.9 24.4 35.1 92.0 80.8 276.0
11/05 00:40 6.3 91 6.74 4.9 61 70 1000.9 2 15.9 24.5 35.3 92.5 81.3 277.8
11/05 00:30 6.3 91 6.74 4.9 61 80 1000.9 2 15.9 24.5 35.3 92.5 81.3 277.8
11/05 00:20 6.3 92 6.81 5.1 65 74 1000.8 2 16.1 24.6 35.5 93.2 82.3 281.1
11/05 00:10 6.3 92 6.81 5.1 57 67 1000.7 2 16.1 24.6 35.5 93.2 82.3 281.1
11/05 00:00 6.3 92 6.81 5.1 57 76 1000.9 1.8 16.1 24.6 35.5 93.2 82.3 281.1
10/05 23:50 6.3 92 6.81 5.1 48 59 1000.7 1.8 16.1 24.6 35.5 93.2 82.3 281.1
10/05 23:40 6.3 92 6.81 5.1 54 65 1000.4 1.8 16.1 24.6 35.5 93.2 82.2 281.0
10/05 23:30 6.5 91 6.83 5.1 57 80 1000.5 1.8 16.1 24.6 35.5 93.2 82.3 281.3
10/05 23:20 6.6 89 6.72 4.9 54 74 1000.3 1.8 15.9 24.4 35.0 91.8 80.7 275.7
10/05 23:10 6.6 88 6.65 4.8 67 74 1000.3 1.8 15.7 24.3 34.7 91.1 79.8 272.4
10/05 23:00 6.6 88 6.65 4.8 50 61 999.9 1.8 15.7 24.2 34.7 91.0 79.7 272.3
10/05 22:50 6.6 87 6.57 4.6 56 61 999.9 1.8 15.5 24.1 34.4 90.2 78.7 268.5
10/05 22:40 6.7 87 6.61 4.7 56 65 1000.2 1.8 15.6 24.2 34.5 90.5 79.1 270.1
10/05 22:30 6.7 87 6.61 4.7 57 70 1000.2 1.8 15.6 24.2 34.5 90.5 79.1 270.1
10/05 22:20 6.6 88 6.65 4.8 54 59 999.9 1.6 15.7 24.2 34.7 91.0 79.7 272.3
10/05 22:10 6.5 89 6.68 4.8 56 63 1000.3 1.6 15.8 24.3 34.9 91.5 80.3 274.1
10/05 22:00 6.4 90 6.71 4.9 54 63 1000.6 1.6 15.9 24.4 35.1 92.0 80.8 276.0
10/05 21:50 6.3 91 6.74 4.9 56 63 1000.7 1.6 15.9 24.5 35.3 92.4 81.3 277.8
10/05 21:40 6.3 92 6.81 5.1 52 61 1001 1.6 16.1 24.6 35.6 93.2 82.3 281.2
10/05 21:30 6.2 92 6.77 5 52 56 1001 1.6 16.0 24.6 35.4 92.9 81.8 279.6
10/05 21:20 6.2 93 6.84 5.2 50 61 1001.2 1.6 16.1 24.7 35.7 93.7 82.8 283.0
10/05 21:10 6.1 93 6.8 5.1 57 65 1001.2 1.6 16.1 24.7 35.6 93.4 82.4 281.5
10/05 21:00 6.1 93 6.8 5.1 48 61 1001.4 1.6 16.1 24.7 35.6 93.4 82.4 281.5
10/05 20:50 6.1 93 6.8 5.1 46 56 1001.5 1.6 16.1 24.7 35.6 93.4 82.4 281.5
10/05 20:40 6 93 6.75 5 46 56 1001.5 1.6 16.0 24.6 35.5 93.0 81.8 279.5
10/05 20:30 6 93 6.75 5 52 59 1001.7 1.6 16.0 24.6 35.5 93.0 81.8 279.6
10/05 20:20 6 92 6.68 4.8 50 56 1001.8 1.6 15.8 24.5 35.2 92.2 80.9 276.3
10/05 20:10 6 92 6.68 4.8 43 50 1001.9 1.6 15.8 24.5 35.2 92.3 80.9 276.3
10/05 20:00 6 91 6.61 4.6 48 56 1001.9 1.6 15.7 24.4 34.9 91.5 79.9 273.0
10/05 19:50 5.9 90 6.49 4.4 57 67 1002 1.6 15.4 24.3 34.5 90.3 78.4 267.7
10/05 19:40 5.8 90 6.45 4.3 56 63 1002 1.6 15.3 24.2 34.3 90.0 78.0 266.1
10/05 19:30 5.7 90 6.41 4.2 54 65 1002.1 1.6 15.2 24.2 34.2 89.7 77.6 264.6
10/05 19:20 5.6 90 6.37 4.1 50 61 1002 1.6 15.2 24.1 34.1 89.3 77.1 263.0
10/05 19:10 5.7 89 6.34 4 46 54 1002 1.6 15.1 24.1 33.9 88.9 76.6 261.3
10/05 19:00 5.5 89 6.25 3.8 52 61 1001.9 1.6 14.9 24.0 33.7 88.1 75.6 257.7
10/05 18:50 5.4 89 6.21 3.7 46 52 1002 1.6 14.8 23.9 33.5 87.8 75.2 256.2
10/05 18:40 5.2 88 6.06 3.4 44 56 1002.1 1.6 14.5 23.7 33.0 86.4 73.4 249.8
10/05 18:30 5.1 87 5.96 3.1 52 57 1002.3 1.6 14.3 23.6 32.7 85.5 72.1 245.5
10/05 18:20 5 86 5.85 2.9 46 57 1002.4 1.6 14.1 23.5 32.3 84.4 70.8 240.7
10/05 18:10 5 83 5.64 2.4 52 63 1002.3 1.6 13.6 23.1 31.4 82.2 68.0 231.0
10/05 18:00 5 81 5.51 2 48 54 1002.4 1.6 13.3 22.9 30.9 80.8 66.3 225.0
10/05 17:50 4.9 82 5.54 2.1 46 54 1002.4 1.6 13.4 23.0 31.1 81.2 66.8 226.7
10/05 17:40 4.8 80 5.37 1.6 54 61 1002.4 1.6 13.0 22.7 30.4 79.5 64.7 219.2
10/05 17:30 4.7 81 5.4 1.7 50 54 1002.3 1.6 13.1 22.8 30.6 79.9 65.1 220.8
10/05 17:20 4.6 81 5.36 1.6 43 50 1002.3 1.6 13.0 22.8 30.5 79.6 64.7 219.2
10/05 17:10 4.5 78 5.13 1 50 56 1002.4 1.6 12.5 22.4 29.6 77.3 61.8 209.0
10/05 17:00 4.5 75 4.93 0.5 54 59 1002.4 1.6 12.1 22.1 28.8 75.2 59.2 200.0
10/05 16:50 4.3 73 4.74 -0.1 50 57 1002.4 1.6 11.7 21.9 28.2 73.4 56.9 192.0
10/05 16:40 4.1 80 5.12 1 50 56 1002.5 1.6 12.5 22.5 29.7 77.6 62.0 209.7
10/05 16:30 4.1 79 5.06 0.8 46 54 1002.6 1.6 12.4 22.4 29.5 77.0 61.2 206.9
10/05 16:20 3.7 81 5.05 0.7 52 59 1002.5 1.6 12.4 22.5 29.6 77.3 61.4 207.5
10/05 16:10 3.5 82 5.05 0.7 46 54 1002.6 1.6 12.4 22.6 29.7 77.5 61.5 208.1
10/05 16:00 3.4 83 5.07 0.8 52 59 1002.6 1.6 12.4 22.6 29.8 77.8 61.9 209.2

Last Refresh: 11-May-2026 08:01:54

Bureau of Meteorology